KBTM/BTM METAR and TAF weather

Enter ICAO airport designator
Station Type Date Time Source
KBTM METAR 2018/10/22 15:53 UTC NOAA

KBTM 221553Z AUTO 00000KT 10SM CLR 02/M03 A3021 RMK AO2 SLP237 T00221028


Station Type Date Time Source
KBTM Decoded METAR 2018/10/22 15:53 UTC NOAA

BERT MOONEY AIRPORT, MT, United States (KBTM) 45-58N 112-30W 1688M
Oct 22, 2018 - 11:53 AM EDT / 2018.10.22 1553 UTC
Wind: Calm:0
Visibility: 10 mile(s):0
Sky conditions: clear
Temperature: 36.0 F (2.2 C)
Dew Point: 27.0 F (-2.8 C)
Relative Humidity: 69%
Pressure (altimeter): 30.21 in. Hg (1023 hPa)
ob: KBTM 221553Z AUTO 00000KT 10SM CLR 02/M03 A3021 RMK AO2 SLP237 T00221028
cycle: 16

Station Type Date Time Source
KBTM TAF 2018/10/22 12:22 UTC NOAA

TAF KBTM 221120Z 2212/2312 00000KT P6SM SKC
FM222000 15004KT P6SM SKC


Example: see airport list